• Join FlightAware (Why Join?)
  • Login
  • US Flag 
08:24PM EDT


 

Airport Tracker/Info


-or-


 

Live Flight TrackerFlight Track Log ✈ JBU1329 ✈ 01-May-2013 ✈ KBOS - KBWI

Flight Track Log - Related Links

Times and Time Zones

All times are in EDT time to prevent confusion due to time zone crossing. See the JBU1329 flight status page for this flight to view local times or setup timezone preferences in your user account.

Time Position Orientation Groundspeed Altitude Reporting Facility
EDT Latitude Longitude Course Direction KTS MPH feet Rate Location/Type
09:16AM 42.3833 -71.0000 262° West 161 185 1,000  Level KA90
09:17AM 42.4167 -70.9667 36° Northeast 208 239 3,000 2,820 Climbing KA90
09:18AM 42.4500 -70.9000 56° Northeast 249 287 6,400 3,540 Climbing KA90
09:18AM 42.4581 -70.8586 75° East 259 298 8,100 3,120 Climbing Boston Center
09:19AM 42.2663 -70.7673 228° Southwest  Level FlightAware Approximate
09:19AM 42.4297 -70.7664 113° Southeast 295 339 10,900  Level Boston Center
09:20AM 42.2046 -70.8837 240° Southwest  Level FlightAware Approximate
09:20AM 42.3439 -70.7406 167° South 320 368 12,900  Level Boston Center
09:21AM 42.1781 -71.0193 262° West  Level FlightAware Approximate
09:21AM 42.2594 -70.8047 209° Southwest 304 350 16,000  Level Boston Center
09:22AM 42.2089 -70.9264 241° Southwest 310 357 18,500 2,340 Climbing Boston Center
09:23AM 42.1878 -71.0728 259° West 343 395 20,700 2,100 Climbing Boston Center
09:24AM 42.1583 -71.2189 255° West 381 438 22,800 2,100 Climbing Boston Center
09:25AM 42.1097 -71.3597 245° Southwest 399 459 25,000 1,800 Climbing Boston Center
09:26AM 42.0589 -71.5033 245° Southwest 419 482 26,400 1,080 Climbing Boston Center
09:27AM 42.0097 -71.6269 242° Southwest 433 498 27,200 1,500 Climbing Boston Center
09:28AM 41.9381 -71.8178 243° Southwest 464 534 29,500 1,380 Climbing Boston Center
09:29AM 41.8825 -71.9744 245° Southwest 471 542 30,000 240 Climbing Boston Center
09:30AM 41.8247 -72.1308 244° Southwest 471 542 30,000  Level Boston Center
09:31AM 41.7647 -72.2925 244° Southwest 476 548 30,000  Level Boston Center
09:32AM 41.7086 -72.4483 244° Southwest 476 548 30,000  Level Boston Center
09:33AM 41.6500 -72.6067 244° Southwest 476 548 30,000  Level Boston Center
09:34AM 41.5892 -72.7675 243° Southwest 476 548 30,000  Level Boston Center
09:35AM 41.5261 -72.9392 244° Southwest 476 548 30,000  Level Boston Center
09:36AM 41.4711 -73.0828 243° Southwest 476 548 30,000  Level Boston Center
09:37AM 41.4075 -73.2539 244° Southwest 476 548 30,000  Level Boston Center
09:39AM 41.3022 -73.5275 243° Southwest 451 519 30,000  Level New York Center
09:40AM 41.2261 -73.6706 235° Southwest 464 534 30,000  Level New York Center
09:41AM 41.1456 -73.8075 232° Southwest 477 549 30,000  Level New York Center
09:42AM 41.0714 -73.9361 233° Southwest 489 563 30,000  Level New York Center
09:43AM 40.9708 -74.1019 231° Southwest 494 568 30,000  Level New York Center
09:44AM 40.8944 -74.2244 231° Southwest 489 563 30,000 -1,020 Level New York Center
09:45AM 40.8044 -74.3789 232° Southwest 489 563 28,000 -1,020 Descending New York Center
09:46AM 40.7253 -74.5114 232° Southwest 484 557 28,000 -480 Level New York Center
09:47AM 40.6439 -74.6439 231° Southwest 479 551 27,100 -960 Descending New York Center
09:48AM 40.5911 -74.7911 245° Southwest 450 518 26,200 -1,020 Descending New York Center
09:49AM 40.5464 -74.9414 249° West 450 518 25,100 -1,200 Descending New York Center
09:50AM 40.4869 -75.0825 241° Southwest 445 512 23,900 -1,260 Descending New York Center
09:51AM 40.4056 -75.2000 228° Southwest 440 506 22,700 -1,200 Descending New York Center
09:52AM 40.3222 -75.3117 226° Southwest 440 506 21,500 -1,200 Descending New York Center
09:53AM 40.2406 -75.4233 226° Southwest 435 501 20,400 -1,200 Descending New York Center
09:54AM 40.1653 -75.5325 228° Southwest 422 486 19,200 -1,200 Descending New York Center
09:55AM 40.0803 -75.6242 220° Southwest 403 464 18,000 -600 Descending New York Center
09:56AM 39.9747 -75.6575 194° South 389 448 18,000  Level New York Center
09:57AM 39.8839 -75.7378 214° Southwest 389 448 18,000 -60 Level New York Center
09:58AM 39.8294 -75.8419 236° Southwest 390 449 17,900 -1,380 Descending New York Center
10:00AM 39.7000 -76.1000 237° Southwest 365 420 13,800 -2,160 Descending Potomac TRACON
10:01AM 39.6333 -76.2000 229° Southwest 350 403 11,100 -1,920 Descending Potomac TRACON
10:02AM 39.5833 -76.3000 237° Southwest 318 366 10,000 -600 Descending Potomac TRACON
10:03AM 39.5500 -76.4000 247° West 297 342 10,000 -360 Level Potomac TRACON
10:04AM 39.5000 -76.4833 232° Southwest 294 338 9,300 -1,140 Descending Potomac TRACON
10:05AM 39.4667 -76.5833 247° West 289 333 7,800 -1,620 Descending Potomac TRACON
10:06AM 39.4167 -76.6667 232° Southwest 288 331 6,100 -1,620 Descending Potomac TRACON
10:07AM 39.3667 -76.7500 232° Southwest 279 321 4,600 -1,080 Descending Potomac TRACON
10:08AM 39.3333 -76.8333 243° Southwest 270 311 4,000 -300 Descending Potomac TRACON
10:09AM 39.3000 -76.9000 237° Southwest 255 293 4,000 -300 Level Potomac TRACON
10:10AM 39.2500 -76.9333 207° Southwest 246 283 3,500 -600 Descending Potomac TRACON
10:11AM 39.2167 -76.8833 131° Southeast 197 227 2,800 -720 Descending Potomac TRACON
10:12AM 39.1833 -76.8167 123° Southeast 167 192 2,100 -780 Descending Potomac TRACON
10:13AM 39.1833 -76.7667 90° East 146 168 1,300 -720 Descending Potomac TRACON
10:14AM 39.1833 -76.7167 90° East 123 142 700 -600 Descending Potomac TRACON